createdAt,value
2019-05-26T00:01:47.752Z,24.30
2019-05-26T00:04:21.966Z,23.90
2019-05-26T00:06:55.118Z,23.80
2019-05-26T00:09:29.255Z,24.10
2019-05-26T00:12:03.362Z,24.00
2019-05-26T00:14:37.593Z,24.20
2019-05-26T00:17:11.096Z,24.10
2019-05-26T00:19:44.846Z,24.20
2019-05-26T00:22:18.569Z,24.20
2019-05-26T00:24:52.847Z,24.10
2019-05-26T00:27:26.842Z,24.20
2019-05-26T00:30:01.060Z,24.20
2019-05-26T00:32:35.169Z,24.20
2019-05-26T00:35:08.369Z,24.30
2019-05-26T00:37:50.540Z,24.40
2019-05-26T00:40:18.535Z,24.40
2019-05-26T00:42:52.130Z,24.40
2019-05-26T00:45:26.564Z,24.30
2019-05-26T00:48:00.981Z,24.30
2019-05-26T00:50:34.664Z,24.30
2019-05-26T00:53:08.009Z,24.00
2019-05-26T00:55:41.667Z,24.00
2019-05-26T00:58:15.817Z,24.10
2019-05-26T01:00:49.574Z,24.10
2019-05-26T01:03:23.458Z,24.10
2019-05-26T01:05:57.281Z,23.90
2019-05-26T01:08:31.438Z,23.80
2019-05-26T01:11:05.013Z,23.90
2019-05-26T01:13:39.247Z,23.80
2019-05-26T01:16:13.471Z,23.80
2019-05-26T01:18:47.047Z,23.60
2019-05-26T01:21:20.687Z,23.30
2019-05-26T01:23:53.958Z,23.20
2019-05-26T01:26:27.789Z,23.30
2019-05-26T01:29:01.902Z,23.50
2019-05-26T01:31:35.171Z,23.60
2019-05-26T01:34:08.752Z,23.50
2019-05-26T01:36:42.991Z,23.50
2019-05-26T01:39:16.764Z,23.50
2019-05-26T01:41:51.021Z,23.50
2019-05-26T01:44:25.043Z,23.30
2019-05-26T01:46:58.626Z,22.70
2019-05-26T01:49:32.722Z,22.90
2019-05-26T01:52:06.984Z,23.10
2019-05-26T01:54:41.103Z,23.00
2019-05-26T01:57:15.591Z,22.80
2019-05-26T01:59:49.095Z,23.00
2019-05-26T02:02:22.678Z,22.90
2019-05-26T02:04:56.939Z,22.90
2019-05-26T02:07:31.183Z,22.90
2019-05-26T02:10:05.269Z,22.90
2019-05-26T02:12:38.951Z,23.00
2019-05-26T02:15:13.648Z,22.90
2019-05-26T02:17:46.866Z,22.70
2019-05-26T02:20:20.770Z,22.70
2019-05-26T02:22:54.995Z,22.60
2019-05-26T02:25:30.106Z,22.70
2019-05-26T02:28:03.838Z,22.80
2019-05-26T02:30:38.074Z,23.00
2019-05-26T02:33:11.361Z,23.00
2019-05-26T02:35:45.069Z,23.00
2019-05-26T02:38:18.238Z,23.10
2019-05-26T02:40:51.467Z,23.10
2019-05-26T02:43:24.745Z,23.00
2019-05-26T02:45:57.804Z,23.00
2019-05-26T02:48:31.553Z,23.00
2019-05-26T02:51:04.900Z,22.80
2019-05-26T02:53:38.714Z,22.80
2019-05-26T02:56:11.974Z,23.00
2019-05-26T02:58:45.747Z,23.00
2019-05-26T03:01:20.380Z,22.70
2019-05-26T03:03:53.871Z,22.30
2019-05-26T03:06:29.881Z,22.50
2019-05-26T03:09:21.981Z,22.50
2019-05-26T03:11:45.915Z,22.70
2019-05-26T03:14:22.929Z,22.70
2019-05-26T03:17:00.983Z,22.70
2019-05-26T03:19:35.344Z,22.70
2019-05-26T03:22:09.867Z,22.70
2019-05-26T03:24:47.398Z,22.80
2019-05-26T03:27:20.759Z,22.70
2019-05-26T03:29:54.184Z,22.80
2019-05-26T03:32:28.009Z,22.90
2019-05-26T03:35:01.848Z,23.10
2019-05-26T03:37:35.703Z,23.10
2019-05-26T03:40:10.711Z,23.20
2019-05-26T03:42:44.382Z,23.20
2019-05-26T03:45:27.250Z,23.00
2019-05-26T03:48:01.373Z,23.10
2019-05-26T03:50:35.668Z,23.10
2019-05-26T03:53:09.322Z,22.90
2019-05-26T03:55:43.253Z,22.90
2019-05-26T03:58:16.672Z,23.00
2019-05-26T04:00:50.494Z,22.70
2019-05-26T04:03:24.376Z,22.60
2019-05-26T04:05:58.213Z,22.80
2019-05-26T04:08:31.812Z,22.60
2019-05-26T04:11:05.917Z,22.50
2019-05-26T04:13:39.971Z,22.70
2019-05-26T04:16:13.902Z,22.70
2019-05-26T04:18:47.860Z,22.50
2019-05-26T04:21:21.651Z,22.70
2019-05-26T04:23:55.408Z,22.90
2019-05-26T04:26:29.485Z,23.00
2019-05-26T04:29:03.439Z,23.00
2019-05-26T04:31:37.110Z,23.30
2019-05-26T04:34:11.481Z,23.50
2019-05-26T04:36:45.582Z,23.20
2019-05-26T04:39:19.604Z,23.10
2019-05-26T04:41:53.391Z,23.20
2019-05-26T04:44:27.279Z,22.40
2019-05-26T04:47:01.122Z,22.40
2019-05-26T04:49:37.566Z,22.40
2019-05-26T04:52:10.894Z,22.20
2019-05-26T04:54:44.675Z,22.50
2019-05-26T04:57:18.227Z,22.70
2019-05-26T04:59:52.186Z,23.00
2019-05-26T05:02:25.810Z,23.00
2019-05-26T05:04:59.891Z,23.20
2019-05-26T05:07:33.192Z,23.50
2019-05-26T05:10:06.990Z,23.60
2019-05-26T05:12:41.710Z,23.50
2019-05-26T05:15:16.566Z,22.70
2019-05-26T05:17:50.569Z,22.20
2019-05-26T05:20:24.445Z,22.10
2019-05-26T05:22:58.291Z,22.10
2019-05-26T05:25:32.016Z,22.30
2019-05-26T05:28:06.386Z,22.60
2019-05-26T05:30:40.369Z,22.10
2019-05-26T05:33:14.237Z,22.60
2019-05-26T05:35:47.952Z,23.00
2019-05-26T05:38:21.774Z,23.30
2019-05-26T05:40:59.936Z,23.50
2019-05-26T05:43:33.682Z,23.10
2019-05-26T05:46:07.389Z,23.00
2019-05-26T05:48:41.141Z,22.60
2019-05-26T05:51:16.224Z,22.60
2019-05-26T05:53:50.478Z,22.60
2019-05-26T05:56:23.728Z,22.80
2019-05-26T05:58:58.074Z,23.20
2019-05-26T06:01:31.702Z,23.50
2019-05-26T06:04:05.989Z,23.80
2019-05-26T06:06:40.210Z,23.30
2019-05-26T06:09:14.403Z,23.20
2019-05-26T06:11:47.281Z,23.40
2019-05-26T06:14:21.028Z,23.70
2019-05-26T06:16:54.672Z,24.20
2019-05-26T06:19:27.975Z,23.40
2019-05-26T06:22:01.365Z,23.40
2019-05-26T06:24:35.407Z,23.10
2019-05-26T06:27:09.012Z,23.50
2019-05-26T06:29:57.777Z,23.60
2019-05-26T06:32:18.429Z,23.60
2019-05-26T06:34:52.142Z,23.30
2019-05-26T06:37:26.057Z,22.50
2019-05-26T06:39:59.322Z,22.20
2019-05-26T06:42:32.985Z,22.30
2019-05-26T06:45:06.177Z,22.80
2019-05-26T06:47:40.375Z,23.20
2019-05-26T06:50:13.311Z,23.50
2019-05-26T06:52:46.996Z,23.70
2019-05-26T06:55:20.662Z,24.00
2019-05-26T06:57:55.983Z,24.20
2019-05-26T07:00:29.807Z,24.10
2019-05-26T07:03:03.487Z,24.10
2019-05-26T07:05:37.219Z,24.10
2019-05-26T07:08:11.434Z,24.20
2019-05-26T07:10:45.203Z,24.50
2019-05-26T07:13:19.227Z,24.10
2019-05-26T07:15:53.741Z,23.70
2019-05-26T07:18:27.996Z,23.10
2019-05-26T07:21:02.107Z,22.40
2019-05-26T07:23:36.324Z,22.20
2019-05-26T07:26:09.900Z,21.90
2019-05-26T07:28:44.038Z,22.20
2019-05-26T07:31:18.270Z,22.50
2019-05-26T07:33:52.107Z,23.10
2019-05-26T07:36:25.669Z,22.90
2019-05-26T07:38:59.246Z,23.00
2019-05-26T07:41:33.045Z,23.00
2019-05-26T07:44:06.851Z,23.70
2019-05-26T07:46:40.995Z,24.10
2019-05-26T07:49:14.649Z,24.70
2019-05-26T07:51:48.478Z,25.00
2019-05-26T07:54:25.822Z,24.60
2019-05-26T07:56:58.498Z,24.40
2019-05-26T08:03:33.169Z,24.50
2019-05-26T08:06:07.057Z,23.30
2019-05-26T08:08:40.331Z,23.80
2019-05-26T08:11:14.332Z,23.80
2019-05-26T08:13:46.708Z,24.30
2019-05-26T08:16:19.924Z,23.70
2019-05-26T08:18:52.877Z,23.90
2019-05-26T08:21:26.624Z,24.10
2019-05-26T08:23:58.634Z,24.30
2019-05-26T08:26:31.078Z,24.20
2019-05-26T08:29:03.489Z,24.70
2019-05-26T08:31:35.550Z,25.10
2019-05-26T08:34:08.520Z,25.40
2019-05-26T08:36:40.994Z,25.40
2019-05-26T08:39:13.817Z,24.70
2019-05-26T08:41:47.278Z,24.30
2019-05-26T08:44:20.272Z,24.20
2019-05-26T08:46:54.241Z,24.10
2019-05-26T08:49:26.649Z,24.50
2019-05-26T08:51:59.046Z,24.60
2019-05-26T08:54:31.476Z,24.80
2019-05-26T08:57:04.558Z,25.40
2019-05-26T08:59:37.412Z,24.20
2019-05-26T09:02:09.930Z,23.90
2019-05-26T09:04:43.129Z,24.80
2019-05-26T09:07:16.134Z,25.30
2019-05-26T09:09:48.463Z,25.60
2019-05-26T09:12:21.116Z,25.60
2019-05-26T09:14:53.428Z,25.90
2019-05-26T09:17:25.462Z,26.20
2019-05-26T09:19:58.098Z,26.50
2019-05-26T09:22:30.485Z,25.80
2019-05-26T09:25:03.734Z,25.70
2019-05-26T09:27:36.084Z,26.10
2019-05-26T09:30:08.781Z,26.10
2019-05-26T09:32:41.556Z,25.90
2019-05-26T09:35:14.881Z,25.80
2019-05-26T09:37:48.346Z,25.80
2019-05-26T09:40:21.503Z,25.60
2019-05-26T09:42:55.425Z,24.70
2019-05-26T09:45:27.364Z,24.90
2019-05-26T09:47:59.383Z,24.20
2019-05-26T09:50:31.837Z,24.10
2019-05-26T09:53:04.584Z,24.40
2019-05-26T09:55:37.926Z,24.10
2019-05-26T09:58:10.735Z,23.90
2019-05-26T10:00:45.051Z,23.90
2019-05-26T10:03:17.835Z,24.40
2019-05-26T10:05:50.792Z,24.60
2019-05-26T10:08:24.178Z,25.00
2019-05-26T10:10:56.630Z,25.40
2019-05-26T10:13:32.041Z,25.10
2019-05-26T10:16:04.521Z,24.40
2019-05-26T10:18:36.431Z,24.30
2019-05-26T10:21:10.196Z,24.70
2019-05-26T10:23:42.672Z,24.20
2019-05-26T10:26:15.137Z,23.90
2019-05-26T10:28:48.453Z,24.40
2019-05-26T10:31:22.614Z,24.20
2019-05-26T10:33:55.389Z,24.50
2019-05-26T10:36:28.304Z,23.90
2019-05-26T10:39:02.358Z,24.40
2019-05-26T10:41:36.331Z,24.00
2019-05-26T10:44:09.233Z,23.80
2019-05-26T10:46:42.279Z,24.30
2019-05-26T10:49:15.490Z,25.00
2019-05-26T10:51:49.102Z,24.60
2019-05-26T10:54:22.815Z,24.50
2019-05-26T10:56:56.578Z,24.70
2019-05-26T10:59:31.234Z,25.00
2019-05-26T11:02:04.176Z,25.30
2019-05-26T11:04:37.807Z,25.40
2019-05-26T11:07:11.755Z,25.20
2019-05-26T11:09:46.334Z,25.40
2019-05-26T11:12:19.377Z,25.70
2019-05-26T11:14:52.478Z,24.90
2019-05-26T11:17:26.166Z,24.90
2019-05-26T11:20:00.111Z,25.30
2019-05-26T11:22:32.741Z,25.70
2019-05-26T11:25:06.225Z,25.20
2019-05-26T11:27:40.043Z,25.10
2019-05-26T11:30:13.999Z,25.40
2019-05-26T11:32:48.336Z,25.90
2019-05-26T11:35:22.600Z,26.10
2019-05-26T11:37:56.304Z,26.40
2019-05-26T11:40:29.839Z,25.80
2019-05-26T11:43:15.723Z,26.00
2019-05-26T11:45:38.745Z,25.90
2019-05-26T11:48:12.042Z,25.90
2019-05-26T11:50:45.843Z,26.20
2019-05-26T11:53:19.915Z,26.10
2019-05-26T11:55:53.224Z,25.90
2019-05-26T11:58:26.424Z,25.60
2019-05-26T12:01:00.534Z,26.10
2019-05-26T12:03:34.274Z,26.50
2019-05-26T12:06:08.351Z,27.00
2019-05-26T12:08:42.058Z,27.60
2019-05-26T12:11:16.184Z,28.20
2019-05-26T12:13:49.378Z,27.80
2019-05-26T12:16:23.075Z,28.00
2019-05-26T12:18:57.288Z,28.10
2019-05-26T12:21:31.412Z,28.20
2019-05-26T12:24:05.279Z,29.10
2019-05-26T12:26:38.106Z,29.50
2019-05-26T12:29:12.303Z,29.20
2019-05-26T12:31:46.008Z,29.70
2019-05-26T12:34:20.137Z,29.50
2019-05-26T12:36:53.720Z,28.90
2019-05-26T12:39:27.432Z,28.80
2019-05-26T12:42:01.437Z,28.20
2019-05-26T12:44:48.548Z,28.50
2019-05-26T12:47:10.087Z,29.40
2019-05-26T12:49:44.193Z,30.00
2019-05-26T12:52:18.104Z,30.50
2019-05-26T12:54:52.122Z,29.80
2019-05-26T12:57:26.123Z,30.10
2019-05-26T12:59:59.378Z,30.10
2019-05-26T13:02:33.328Z,30.80
2019-05-26T13:05:06.932Z,30.80
2019-05-26T13:07:39.796Z,30.00
2019-05-26T13:10:14.131Z,29.40
2019-05-26T13:12:48.281Z,29.70
2019-05-26T13:15:22.277Z,30.00
2019-05-26T13:17:55.562Z,30.20
2019-05-26T13:20:30.025Z,30.30
2019-05-26T13:23:03.777Z,30.10
2019-05-26T13:25:38.028Z,30.30
2019-05-26T13:28:11.820Z,30.70
2019-05-26T13:30:45.509Z,31.30
2019-05-26T13:33:19.538Z,32.20
2019-05-26T13:35:52.823Z,32.20
2019-05-26T13:38:26.237Z,32.00
2019-05-26T13:40:59.681Z,31.00
2019-05-26T13:43:32.559Z,30.40
2019-05-26T13:46:04.572Z,29.80
2019-05-26T13:48:36.554Z,29.30
2019-05-26T13:51:08.869Z,29.80
2019-05-26T13:53:41.851Z,29.70
2019-05-26T13:56:14.661Z,29.00
2019-05-26T13:58:48.551Z,29.00
2019-05-26T14:01:21.482Z,28.80
2019-05-26T14:03:54.606Z,28.30
2019-05-26T14:06:26.993Z,28.40
2019-05-26T14:09:02.299Z,28.50
2019-05-26T14:11:34.372Z,29.70
2019-05-26T14:14:07.012Z,29.90
2019-05-26T14:16:39.945Z,30.20
2019-05-26T14:19:13.876Z,30.10
2019-05-26T14:21:46.358Z,30.10
2019-05-26T14:24:18.914Z,29.80
2019-05-26T14:26:52.364Z,29.80
2019-05-26T14:29:25.622Z,29.30
2019-05-26T14:31:58.005Z,28.70
2019-05-26T14:34:31.882Z,28.50
2019-05-26T14:37:05.233Z,28.60
2019-05-26T14:39:38.542Z,28.60
2019-05-26T14:42:10.512Z,28.30
2019-05-26T14:44:43.927Z,28.20
2019-05-26T14:47:16.343Z,29.00
2019-05-26T14:49:49.637Z,29.90
2019-05-26T14:52:23.452Z,30.00
2019-05-26T14:54:56.878Z,29.60
2019-05-26T14:57:31.171Z,29.90
2019-05-26T15:00:06.253Z,30.10
2019-05-26T15:02:40.652Z,30.00
2019-05-26T15:05:16.089Z,29.80
2019-05-26T15:07:50.312Z,29.00
2019-05-26T15:10:24.466Z,28.60
2019-05-26T15:12:57.819Z,28.50
2019-05-26T15:15:34.758Z,28.60
2019-05-26T15:18:05.840Z,29.30
2019-05-26T15:20:39.808Z,29.60
2019-05-26T15:23:13.317Z,29.70
2019-05-26T15:25:46.898Z,30.00
2019-05-26T15:28:20.306Z,29.80
2019-05-26T15:30:54.334Z,30.30
2019-05-26T15:33:27.555Z,30.20
2019-05-26T15:36:01.668Z,30.00
2019-05-26T15:38:43.015Z,29.20
2019-05-26T15:41:10.823Z,28.80
2019-05-26T15:43:44.082Z,28.80
2019-05-26T15:46:25.279Z,28.70
2019-05-26T15:48:53.863Z,28.60
2019-05-26T15:51:27.549Z,28.40
2019-05-26T15:54:01.673Z,28.50
2019-05-26T15:56:35.656Z,28.80
2019-05-26T15:59:09.895Z,29.20
2019-05-26T16:01:45.375Z,29.30
2019-05-26T16:04:19.536Z,29.60
2019-05-26T16:06:53.276Z,29.60
2019-05-26T16:09:26.622Z,29.60
2019-05-26T16:11:59.936Z,29.60
2019-05-26T16:14:34.168Z,29.70
2019-05-26T16:17:07.480Z,29.60
2019-05-26T16:19:41.131Z,29.20
2019-05-26T16:22:15.408Z,28.50
2019-05-26T16:24:49.498Z,28.10
2019-05-26T16:27:24.020Z,28.70
2019-05-26T16:29:57.644Z,28.90
2019-05-26T16:32:31.711Z,29.70
2019-05-26T16:35:05.433Z,29.60
2019-05-26T16:37:39.571Z,29.90
2019-05-26T16:40:13.894Z,30.50
2019-05-26T16:42:47.622Z,30.60
2019-05-26T16:45:21.549Z,30.60
2019-05-26T16:47:55.490Z,30.40
2019-05-26T16:50:29.001Z,30.20
2019-05-26T16:53:03.186Z,29.90
2019-05-26T16:55:38.735Z,29.60
2019-05-26T16:58:11.405Z,29.80
2019-05-26T17:00:44.730Z,29.70
2019-05-26T17:03:18.438Z,30.50
2019-05-26T17:06:06.981Z,30.80
2019-05-26T17:08:28.090Z,30.60
2019-05-26T17:11:02.961Z,30.40
2019-05-26T17:13:36.645Z,29.60
2019-05-26T17:16:11.899Z,29.70
2019-05-26T17:18:46.053Z,30.30
2019-05-26T17:21:19.858Z,30.00
2019-05-26T17:23:54.139Z,29.60
2019-05-26T17:26:28.055Z,29.30
2019-05-26T17:29:00.898Z,29.60
2019-05-26T17:31:33.555Z,30.20
2019-05-26T17:34:07.241Z,30.60
2019-05-26T17:36:40.875Z,31.20
2019-05-26T17:39:14.087Z,31.30
2019-05-26T17:41:48.274Z,31.20
2019-05-26T17:44:22.304Z,31.00
2019-05-26T17:46:56.532Z,30.90
2019-05-26T17:49:30.332Z,30.40
2019-05-26T17:52:04.229Z,30.30
2019-05-26T17:54:36.611Z,29.90
2019-05-26T17:57:09.500Z,29.70
2019-05-26T17:59:41.944Z,29.50
2019-05-26T18:02:15.333Z,29.40
2019-05-26T18:04:48.365Z,29.50
2019-05-26T18:07:21.577Z,29.70
2019-05-26T18:09:54.052Z,29.80
2019-05-26T18:12:27.094Z,30.20
2019-05-26T18:14:59.095Z,30.00
2019-05-26T18:17:45.990Z,29.90
2019-05-26T18:20:06.540Z,29.70
2019-05-26T18:22:39.523Z,29.40
2019-05-26T18:25:11.609Z,29.40
2019-05-26T18:27:44.454Z,29.30
2019-05-26T18:30:17.755Z,29.40
2019-05-26T18:32:51.214Z,29.60
2019-05-26T18:35:24.090Z,29.40
2019-05-26T18:37:56.771Z,29.40
2019-05-26T18:40:29.720Z,29.40
2019-05-26T18:43:03.404Z,29.60
2019-05-26T18:45:36.806Z,29.80
2019-05-26T18:48:09.689Z,30.00
2019-05-26T18:50:42.680Z,30.00
2019-05-26T18:53:15.579Z,29.90
2019-05-26T18:55:48.108Z,29.80
2019-05-26T18:58:21.456Z,29.60
2019-05-26T19:00:53.975Z,29.60
2019-05-26T19:03:27.298Z,29.40
2019-05-26T19:06:00.133Z,29.40
2019-05-26T19:08:33.781Z,29.40
2019-05-26T19:11:07.620Z,29.50
2019-05-26T19:13:40.587Z,29.40
2019-05-26T19:16:13.595Z,29.30
2019-05-26T19:18:46.425Z,29.20
2019-05-26T19:21:19.347Z,29.30
2019-05-26T19:23:51.839Z,29.30
2019-05-26T19:26:24.814Z,29.20
2019-05-26T19:28:57.259Z,29.20
2019-05-26T19:31:30.400Z,29.20
2019-05-26T19:34:03.322Z,29.00
2019-05-26T19:36:37.096Z,28.90
2019-05-26T19:39:11.204Z,28.80
2019-05-26T19:41:44.121Z,28.80
2019-05-26T19:44:16.915Z,28.80
2019-05-26T19:46:52.849Z,28.70
2019-05-26T19:49:25.780Z,28.60
2019-05-26T19:51:58.316Z,28.50
2019-05-26T19:54:30.285Z,28.40
2019-05-26T19:57:02.202Z,28.40
2019-05-26T19:59:34.625Z,28.30
2019-05-26T20:02:17.802Z,28.30
2019-05-26T20:04:40.862Z,28.30
2019-05-26T20:07:13.871Z,28.40
2019-05-26T20:09:46.434Z,28.10
2019-05-26T20:12:19.751Z,27.90
2019-05-26T20:14:53.396Z,27.90
2019-05-26T20:17:26.818Z,28.00
2019-05-26T20:19:59.425Z,27.80
2019-05-26T20:22:32.393Z,27.80
2019-05-26T20:25:04.365Z,27.60
2019-05-26T20:27:37.285Z,27.50
2019-05-26T20:30:20.603Z,27.50
2019-05-26T20:32:52.322Z,27.50
2019-05-26T20:35:25.562Z,27.50
2019-05-26T20:37:58.966Z,27.50
2019-05-26T20:40:32.914Z,27.40
2019-05-26T20:43:06.304Z,27.30
2019-05-26T20:45:59.694Z,27.30
2019-05-26T20:48:34.618Z,27.40
2019-05-26T20:51:07.568Z,27.40
2019-05-26T20:53:40.781Z,27.40
2019-05-26T20:56:14.193Z,27.40
2019-05-26T20:58:49.807Z,27.10
2019-05-26T21:01:23.422Z,27.20
2019-05-26T21:03:55.806Z,27.10
2019-05-26T21:06:29.574Z,27.10
2019-05-26T21:09:02.971Z,26.90
2019-05-26T21:11:36.577Z,27.00
2019-05-26T21:14:10.313Z,27.00
2019-05-26T21:16:44.209Z,27.00
2019-05-26T21:19:18.019Z,27.10
2019-05-26T21:21:51.849Z,27.00
2019-05-26T21:24:25.517Z,27.10
2019-05-26T21:26:59.650Z,27.10
2019-05-26T21:29:33.405Z,27.10
2019-05-26T21:32:07.137Z,26.80
2019-05-26T21:34:40.922Z,26.90
2019-05-26T21:37:15.198Z,26.80
2019-05-26T21:39:48.369Z,26.60
2019-05-26T21:42:22.310Z,26.70
2019-05-26T21:44:56.081Z,26.80
2019-05-26T21:47:30.198Z,26.50
2019-05-26T21:50:05.783Z,26.60
2019-05-26T21:52:39.836Z,26.60
2019-05-26T21:55:13.980Z,26.50
2019-05-26T21:57:47.229Z,26.50
2019-05-26T22:00:22.492Z,26.50
2019-05-26T22:02:55.348Z,26.40
2019-05-26T22:05:29.736Z,26.40
2019-05-26T22:08:03.438Z,26.50
2019-05-26T22:10:36.696Z,26.50
2019-05-26T22:13:09.820Z,26.50
2019-05-26T22:15:43.092Z,26.40
2019-05-26T22:18:16.782Z,26.50
2019-05-26T22:20:50.598Z,26.30
2019-05-26T22:23:24.613Z,26.30
2019-05-26T22:25:58.852Z,26.30
2019-05-26T22:28:32.732Z,26.40
2019-05-26T22:31:06.879Z,26.60
2019-05-26T22:33:40.109Z,26.50
2019-05-26T22:36:14.236Z,26.50
2019-05-26T22:38:48.346Z,26.50
2019-05-26T22:41:22.214Z,26.50
2019-05-26T22:43:56.288Z,26.40
2019-05-26T22:46:29.900Z,26.20
2019-05-26T22:49:04.012Z,26.20
2019-05-26T22:51:37.605Z,26.10
2019-05-26T22:54:11.618Z,26.00
2019-05-26T22:56:45.383Z,26.00
2019-05-26T22:59:19.171Z,26.10
2019-05-26T23:01:52.894Z,26.00
2019-05-26T23:04:27.147Z,26.20
2019-05-26T23:07:00.859Z,26.20
2019-05-26T23:09:35.051Z,26.40
2019-05-26T23:12:08.219Z,26.40
2019-05-26T23:14:41.960Z,26.40
2019-05-26T23:17:16.085Z,26.40
2019-05-26T23:19:50.335Z,26.40
2019-05-26T23:22:24.215Z,26.30
2019-05-26T23:24:57.400Z,26.10
2019-05-26T23:27:31.620Z,26.10
2019-05-26T23:30:04.564Z,26.00
2019-05-26T23:32:38.827Z,25.80
2019-05-26T23:35:11.940Z,25.60
2019-05-26T23:37:45.999Z,25.60
2019-05-26T23:40:19.320Z,25.60
2019-05-26T23:42:53.426Z,25.60
2019-05-26T23:45:26.642Z,25.60
2019-05-26T23:48:00.612Z,25.60
2019-05-26T23:50:34.746Z,25.50
2019-05-26T23:53:08.529Z,25.30
2019-05-26T23:55:42.775Z,25.30
2019-05-26T23:58:16.157Z,25.30
